sensor_id;sensor_type;location;lat;lon;timestamp;P1;durP1;ratioP1;P2;durP2;ratioP2
16737;SDS011;17906;47.684;10.806;2023-04-24T00:01:19;0.10;;;0.10;;
16737;SDS011;17906;47.684;10.806;2023-04-24T00:03:45;0.77;;;0.10;;
16737;SDS011;17906;47.684;10.806;2023-04-24T00:06:12;0.20;;;0.10;;
16737;SDS011;17906;47.684;10.806;2023-04-24T00:08:40;0.23;;;0.10;;
16737;SDS011;17906;47.684;10.806;2023-04-24T00:11:06;0.10;;;0.10;;
16737;SDS011;17906;47.684;10.806;2023-04-24T00:13:34;0.13;;;0.10;;
16737;SDS011;17906;47.684;10.806;2023-04-24T00:16:00;0.47;;;0.10;;
16737;SDS011;17906;47.684;10.806;2023-04-24T00:18:27;0.10;;;0.10;;
16737;SDS011;17906;47.684;10.806;2023-04-24T00:20:54;0.83;;;0.20;;
16737;SDS011;17906;47.684;10.806;2023-04-24T00:23:21;0.43;;;0.10;;
16737;SDS011;17906;47.684;10.806;2023-04-24T00:25:49;0.20;;;0.20;;
16737;SDS011;17906;47.684;10.806;2023-04-24T00:28:15;3.03;;;0.23;;
16737;SDS011;17906;47.684;10.806;2023-04-24T00:30:42;0.17;;;0.10;;
16737;SDS011;17906;47.684;10.806;2023-04-24T00:33:08;0.40;;;0.20;;
16737;SDS011;17906;47.684;10.806;2023-04-24T00:35:35;0.20;;;0.20;;
16737;SDS011;17906;47.684;10.806;2023-04-24T00:38:01;0.67;;;0.50;;
16737;SDS011;17906;47.684;10.806;2023-04-24T00:40:28;0.10;;;0.10;;
16737;SDS011;17906;47.684;10.806;2023-04-24T00:42:57;0.20;;;0.10;;
16737;SDS011;17906;47.684;10.806;2023-04-24T00:45:23;0.10;;;0.10;;
16737;SDS011;17906;47.684;10.806;2023-04-24T00:47:50;0.10;;;0.10;;
16737;SDS011;17906;47.684;10.806;2023-04-24T00:50:20;0.20;;;0.10;;
16737;SDS011;17906;47.684;10.806;2023-04-24T00:52:46;0.10;;;0.10;;
16737;SDS011;17906;47.684;10.806;2023-04-24T00:55:13;0.10;;;0.10;;
16737;SDS011;17906;47.684;10.806;2023-04-24T00:57:40;0.00;;;0.00;;
16737;SDS011;17906;47.684;10.806;2023-04-24T01:00:08;0.17;;;0.07;;
16737;SDS011;17906;47.684;10.806;2023-04-24T01:02:37;0.10;;;0.10;;
16737;SDS011;17906;47.684;10.806;2023-04-24T01:05:09;0.20;;;0.10;;
16737;SDS011;17906;47.684;10.806;2023-04-24T01:07:36;0.03;;;0.03;;
16737;SDS011;17906;47.684;10.806;2023-04-24T01:10:04;0.00;;;0.00;;
16737;SDS011;17906;47.684;10.806;2023-04-24T01:12:32;0.00;;;0.00;;
16737;SDS011;17906;47.684;10.806;2023-04-24T01:14:58;0.10;;;0.10;;
16737;SDS011;17906;47.684;10.806;2023-04-24T01:17:27;0.20;;;0.03;;
16737;SDS011;17906;47.684;10.806;2023-04-24T01:19:53;1.07;;;0.13;;
16737;SDS011;17906;47.684;10.806;2023-04-24T01:22:23;0.50;;;0.10;;
16737;SDS011;17906;47.684;10.806;2023-04-24T01:24:49;0.10;;;0.03;;
16737;SDS011;17906;47.684;10.806;2023-04-24T01:27:16;0.00;;;0.00;;
16737;SDS011;17906;47.684;10.806;2023-04-24T01:29:42;0.67;;;0.10;;
16737;SDS011;17906;47.684;10.806;2023-04-24T01:32:09;0.10;;;0.00;;
16737;SDS011;17906;47.684;10.806;2023-04-24T01:34:36;0.23;;;0.10;;
16737;SDS011;17906;47.684;10.806;2023-04-24T01:37:03;0.00;;;0.00;;
16737;SDS011;17906;47.684;10.806;2023-04-24T01:39:31;0.30;;;0.10;;
16737;SDS011;17906;47.684;10.806;2023-04-24T01:41:59;0.00;;;0.00;;
16737;SDS011;17906;47.684;10.806;2023-04-24T01:44:26;0.07;;;0.00;;
16737;SDS011;17906;47.684;10.806;2023-04-24T01:46:54;0.10;;;0.10;;
16737;SDS011;17906;47.684;10.806;2023-04-24T01:49:21;0.03;;;0.03;;
16737;SDS011;17906;47.684;10.806;2023-04-24T01:51:47;0.00;;;0.00;;
16737;SDS011;17906;47.684;10.806;2023-04-24T01:54:14;0.03;;;0.03;;
16737;SDS011;17906;47.684;10.806;2023-04-24T01:56:42;0.10;;;0.10;;
16737;SDS011;17906;47.684;10.806;2023-04-24T01:59:10;0.00;;;0.00;;
16737;SDS011;17906;47.684;10.806;2023-04-24T02:01:37;0.10;;;0.10;;
16737;SDS011;17906;47.684;10.806;2023-04-24T02:04:05;0.10;;;0.10;;
16737;SDS011;17906;47.684;10.806;2023-04-24T02:06:32;0.10;;;0.10;;
16737;SDS011;17906;47.684;10.806;2023-04-24T02:08:58;1.70;;;0.10;;
16737;SDS011;17906;47.684;10.806;2023-04-24T02:11:25;0.07;;;0.07;;
16737;SDS011;17906;47.684;10.806;2023-04-24T02:13:53;0.07;;;0.03;;
16737;SDS011;17906;47.684;10.806;2023-04-24T02:16:20;0.30;;;0.20;;
16737;SDS011;17906;47.684;10.806;2023-04-24T02:18:47;0.87;;;0.37;;
16737;SDS011;17906;47.684;10.806;2023-04-24T02:21:13;1.40;;;0.80;;
16737;SDS011;17906;47.684;10.806;2023-04-24T02:23:40;1.80;;;1.00;;
16737;SDS011;17906;47.684;10.806;2023-04-24T02:26:06;0.80;;;0.80;;
16737;SDS011;17906;47.684;10.806;2023-04-24T02:28:33;0.80;;;0.37;;
16737;SDS011;17906;47.684;10.806;2023-04-24T02:31:01;0.30;;;0.20;;
16737;SDS011;17906;47.684;10.806;2023-04-24T02:33:28;0.10;;;0.10;;
16737;SDS011;17906;47.684;10.806;2023-04-24T02:35:54;0.33;;;0.10;;
16737;SDS011;17906;47.684;10.806;2023-04-24T02:38:21;0.13;;;0.10;;
16737;SDS011;17906;47.684;10.806;2023-04-24T02:40:47;0.63;;;0.17;;
16737;SDS011;17906;47.684;10.806;2023-04-24T02:43:14;0.87;;;0.30;;
16737;SDS011;17906;47.684;10.806;2023-04-24T02:45:40;1.53;;;0.20;;
16737;SDS011;17906;47.684;10.806;2023-04-24T02:48:08;0.20;;;0.10;;
16737;SDS011;17906;47.684;10.806;2023-04-24T02:50:35;0.20;;;0.10;;
16737;SDS011;17906;47.684;10.806;2023-04-24T02:53:01;0.23;;;0.13;;
16737;SDS011;17906;47.684;10.806;2023-04-24T02:55:28;0.63;;;0.30;;
16737;SDS011;17906;47.684;10.806;2023-04-24T02:57:55;0.20;;;0.17;;
16737;SDS011;17906;47.684;10.806;2023-04-24T03:00:22;0.30;;;0.20;;
16737;SDS011;17906;47.684;10.806;2023-04-24T03:02:49;0.20;;;0.17;;
16737;SDS011;17906;47.684;10.806;2023-04-24T03:05:17;0.23;;;0.10;;
16737;SDS011;17906;47.684;10.806;2023-04-24T03:07:43;0.10;;;0.10;;
16737;SDS011;17906;47.684;10.806;2023-04-24T03:10:10;0.20;;;0.10;;
16737;SDS011;17906;47.684;10.806;2023-04-24T03:12:37;0.33;;;0.20;;
16737;SDS011;17906;47.684;10.806;2023-04-24T03:15:04;0.87;;;0.20;;
16737;SDS011;17906;47.684;10.806;2023-04-24T03:17:31;0.20;;;0.20;;
16737;SDS011;17906;47.684;10.806;2023-04-24T03:19:57;2.73;;;0.20;;
16737;SDS011;17906;47.684;10.806;2023-04-24T03:22:25;3.03;;;0.27;;
16737;SDS011;17906;47.684;10.806;2023-04-24T03:24:52;1.17;;;0.20;;
16737;SDS011;17906;47.684;10.806;2023-04-24T03:27:19;0.20;;;0.17;;
16737;SDS011;17906;47.684;10.806;2023-04-24T03:29:46;0.13;;;0.13;;
16737;SDS011;17906;47.684;10.806;2023-04-24T03:32:13;0.47;;;0.10;;
16737;SDS011;17906;47.684;10.806;2023-04-24T03:34:39;0.37;;;0.13;;
16737;SDS011;17906;47.684;10.806;2023-04-24T03:37:06;1.73;;;0.10;;
16737;SDS011;17906;47.684;10.806;2023-04-24T03:39:34;0.17;;;0.10;;
16737;SDS011;17906;47.684;10.806;2023-04-24T03:42:00;0.10;;;0.10;;
16737;SDS011;17906;47.684;10.806;2023-04-24T03:44:28;1.13;;;0.10;;
16737;SDS011;17906;47.684;10.806;2023-04-24T03:46:54;0.20;;;0.17;;
16737;SDS011;17906;47.684;10.806;2023-04-24T03:49:21;0.00;;;0.00;;
16737;SDS011;17906;47.684;10.806;2023-04-24T03:51:48;0.83;;;0.20;;
16737;SDS011;17906;47.684;10.806;2023-04-24T03:54:14;0.20;;;0.10;;
16737;SDS011;17906;47.684;10.806;2023-04-24T03:56:42;0.07;;;0.07;;
16737;SDS011;17906;47.684;10.806;2023-04-24T03:59:09;0.20;;;0.10;;
16737;SDS011;17906;47.684;10.806;2023-04-24T04:01:36;0.17;;;0.10;;
16737;SDS011;17906;47.684;10.806;2023-04-24T04:04:03;0.40;;;0.17;;
16737;SDS011;17906;47.684;10.806;2023-04-24T04:06:29;0.30;;;0.10;;
16737;SDS011;17906;47.684;10.806;2023-04-24T04:08:56;2.00;;;0.20;;
16737;SDS011;17906;47.684;10.806;2023-04-24T04:11:23;0.10;;;0.10;;
16737;SDS011;17906;47.684;10.806;2023-04-24T04:13:51;0.83;;;0.20;;
16737;SDS011;17906;47.684;10.806;2023-04-24T04:16:18;0.57;;;0.20;;
16737;SDS011;17906;47.684;10.806;2023-04-24T04:18:45;0.37;;;0.30;;
16737;SDS011;17906;47.684;10.806;2023-04-24T04:21:12;1.10;;;0.50;;
16737;SDS011;17906;47.684;10.806;2023-04-24T04:23:38;0.40;;;0.30;;
16737;SDS011;17906;47.684;10.806;2023-04-24T04:26:06;6.73;;;0.30;;
16737;SDS011;17906;47.684;10.806;2023-04-24T04:28:33;3.57;;;0.80;;
16737;SDS011;17906;47.684;10.806;2023-04-24T04:31:01;1.87;;;0.70;;
16737;SDS011;17906;47.684;10.806;2023-04-24T04:33:27;0.70;;;0.60;;
16737;SDS011;17906;47.684;10.806;2023-04-24T04:35:54;1.50;;;0.30;;
16737;SDS011;17906;47.684;10.806;2023-04-24T04:38:21;0.60;;;0.30;;
16737;SDS011;17906;47.684;10.806;2023-04-24T04:40:48;0.27;;;0.20;;
16737;SDS011;17906;47.684;10.806;2023-04-24T04:43:15;1.13;;;0.20;;
16737;SDS011;17906;47.684;10.806;2023-04-24T04:45:42;0.17;;;0.10;;
16737;SDS011;17906;47.684;10.806;2023-04-24T04:48:11;1.60;;;0.40;;
16737;SDS011;17906;47.684;10.806;2023-04-24T04:50:38;1.50;;;0.37;;
16737;SDS011;17906;47.684;10.806;2023-04-24T04:53:05;0.30;;;0.20;;
16737;SDS011;17906;47.684;10.806;2023-04-24T04:55:32;0.73;;;0.30;;
16737;SDS011;17906;47.684;10.806;2023-04-24T04:57:58;0.80;;;0.20;;
16737;SDS011;17906;47.684;10.806;2023-04-24T05:00:26;0.70;;;0.30;;
16737;SDS011;17906;47.684;10.806;2023-04-24T05:02:54;0.30;;;0.20;;
16737;SDS011;17906;47.684;10.806;2023-04-24T05:05:22;0.20;;;0.20;;
16737;SDS011;17906;47.684;10.806;2023-04-24T05:07:48;0.40;;;0.30;;
16737;SDS011;17906;47.684;10.806;2023-04-24T05:10:15;0.90;;;0.63;;
16737;SDS011;17906;47.684;10.806;2023-04-24T05:12:41;0.83;;;0.57;;
16737;SDS011;17906;47.684;10.806;2023-04-24T05:15:08;0.87;;;0.40;;
16737;SDS011;17906;47.684;10.806;2023-04-24T05:17:35;1.60;;;0.43;;
16737;SDS011;17906;47.684;10.806;2023-04-24T05:20:02;0.80;;;0.57;;
16737;SDS011;17906;47.684;10.806;2023-04-24T05:22:32;0.50;;;0.40;;
16737;SDS011;17906;47.684;10.806;2023-04-24T05:24:58;2.40;;;0.50;;
16737;SDS011;17906;47.684;10.806;2023-04-24T05:27:25;1.07;;;0.50;;
16737;SDS011;17906;47.684;10.806;2023-04-24T05:29:52;0.40;;;0.30;;
16737;SDS011;17906;47.684;10.806;2023-04-24T05:32:18;0.43;;;0.40;;
16737;SDS011;17906;47.684;10.806;2023-04-24T05:34:44;0.97;;;0.30;;
16737;SDS011;17906;47.684;10.806;2023-04-24T05:37:11;0.30;;;0.30;;
16737;SDS011;17906;47.684;10.806;2023-04-24T05:39:39;0.33;;;0.30;;
16737;SDS011;17906;47.684;10.806;2023-04-24T05:42:06;0.60;;;0.40;;
16737;SDS011;17906;47.684;10.806;2023-04-24T05:44:33;0.67;;;0.60;;
16737;SDS011;17906;47.684;10.806;2023-04-24T05:46:59;0.70;;;0.50;;
16737;SDS011;17906;47.684;10.806;2023-04-24T05:49:26;0.50;;;0.30;;
16737;SDS011;17906;47.684;10.806;2023-04-24T05:51:53;0.50;;;0.30;;
16737;SDS011;17906;47.684;10.806;2023-04-24T05:54:20;0.40;;;0.30;;
16737;SDS011;17906;47.684;10.806;2023-04-24T05:56:47;1.30;;;0.50;;
16737;SDS011;17906;47.684;10.806;2023-04-24T05:59:15;1.17;;;0.37;;
16737;SDS011;17906;47.684;10.806;2023-04-24T06:01:41;0.37;;;0.27;;
16737;SDS011;17906;47.684;10.806;2023-04-24T06:04:08;0.93;;;0.30;;
16737;SDS011;17906;47.684;10.806;2023-04-24T06:06:35;0.50;;;0.30;;
16737;SDS011;17906;47.684;10.806;2023-04-24T06:09:01;1.20;;;0.50;;
16737;SDS011;17906;47.684;10.806;2023-04-24T06:11:28;0.70;;;0.40;;
16737;SDS011;17906;47.684;10.806;2023-04-24T06:13:56;0.83;;;0.50;;
16737;SDS011;17906;47.684;10.806;2023-04-24T06:16:23;0.97;;;0.60;;
16737;SDS011;17906;47.684;10.806;2023-04-24T06:18:49;0.63;;;0.40;;
16737;SDS011;17906;47.684;10.806;2023-04-24T06:21:16;0.53;;;0.40;;
16737;SDS011;17906;47.684;10.806;2023-04-24T06:23:43;0.70;;;0.60;;
16737;SDS011;17906;47.684;10.806;2023-04-24T06:26:11;0.50;;;0.50;;
16737;SDS011;17906;47.684;10.806;2023-04-24T06:28:38;0.70;;;0.50;;
16737;SDS011;17906;47.684;10.806;2023-04-24T06:31:06;0.73;;;0.67;;
16737;SDS011;17906;47.684;10.806;2023-04-24T06:33:32;1.10;;;0.60;;
16737;SDS011;17906;47.684;10.806;2023-04-24T06:35:59;2.50;;;0.40;;
16737;SDS011;17906;47.684;10.806;2023-04-24T06:38:25;1.80;;;0.50;;
16737;SDS011;17906;47.684;10.806;2023-04-24T06:40:52;0.87;;;0.30;;
16737;SDS011;17906;47.684;10.806;2023-04-24T06:43:18;0.63;;;0.30;;
16737;SDS011;17906;47.684;10.806;2023-04-24T06:45:45;0.83;;;0.30;;
16737;SDS011;17906;47.684;10.806;2023-04-24T06:48:13;0.20;;;0.20;;
16737;SDS011;17906;47.684;10.806;2023-04-24T06:50:40;1.60;;;0.30;;
16737;SDS011;17906;47.684;10.806;2023-04-24T06:53:07;0.83;;;0.50;;
16737;SDS011;17906;47.684;10.806;2023-04-24T06:55:36;1.00;;;0.30;;
16737;SDS011;17906;47.684;10.806;2023-04-24T06:58:02;0.50;;;0.20;;
16737;SDS011;17906;47.684;10.806;2023-04-24T07:00:29;0.83;;;0.17;;
16737;SDS011;17906;47.684;10.806;2023-04-24T07:02:55;0.37;;;0.20;;
16737;SDS011;17906;47.684;10.806;2023-04-24T07:05:24;0.43;;;0.37;;
16737;SDS011;17906;47.684;10.806;2023-04-24T07:07:50;0.80;;;0.40;;
16737;SDS011;17906;47.684;10.806;2023-04-24T07:10:18;0.30;;;0.20;;
16737;SDS011;17906;47.684;10.806;2023-04-24T07:12:45;0.20;;;0.13;;
16737;SDS011;17906;47.684;10.806;2023-04-24T07:15:12;0.50;;;0.23;;
16737;SDS011;17906;47.684;10.806;2023-04-24T07:17:39;1.00;;;0.40;;
16737;SDS011;17906;47.684;10.806;2023-04-24T07:20:08;0.30;;;0.30;;
16737;SDS011;17906;47.684;10.806;2023-04-24T07:22:37;2.13;;;0.30;;
16737;SDS011;17906;47.684;10.806;2023-04-24T07:25:04;0.50;;;0.40;;
16737;SDS011;17906;47.684;10.806;2023-04-24T07:27:31;0.27;;;0.20;;
16737;SDS011;17906;47.684;10.806;2023-04-24T07:29:58;3.37;;;0.27;;
16737;SDS011;17906;47.684;10.806;2023-04-24T07:32:24;0.50;;;0.20;;
16737;SDS011;17906;47.684;10.806;2023-04-24T07:34:51;0.57;;;0.40;;
16737;SDS011;17906;47.684;10.806;2023-04-24T07:37:18;0.57;;;0.40;;
16737;SDS011;17906;47.684;10.806;2023-04-24T07:39:46;0.80;;;0.50;;
16737;SDS011;17906;47.684;10.806;2023-04-24T07:42:13;3.90;;;0.63;;
16737;SDS011;17906;47.684;10.806;2023-04-24T07:44:39;0.73;;;0.60;;
16737;SDS011;17906;47.684;10.806;2023-04-24T07:47:06;0.90;;;0.40;;
16737;SDS011;17906;47.684;10.806;2023-04-24T07:49:33;0.30;;;0.30;;
16737;SDS011;17906;47.684;10.806;2023-04-24T07:52:00;2.10;;;0.53;;
16737;SDS011;17906;47.684;10.806;2023-04-24T07:54:27;0.97;;;0.40;;
16737;SDS011;17906;47.684;10.806;2023-04-24T07:56:56;1.70;;;0.50;;
16737;SDS011;17906;47.684;10.806;2023-04-24T07:59:22;0.90;;;0.50;;
16737;SDS011;17906;47.684;10.806;2023-04-24T08:01:49;1.07;;;0.87;;
16737;SDS011;17906;47.684;10.806;2023-04-24T08:04:16;0.63;;;0.40;;
16737;SDS011;17906;47.684;10.806;2023-04-24T08:06:42;0.57;;;0.30;;
16737;SDS011;17906;47.684;10.806;2023-04-24T08:09:09;0.60;;;0.47;;
16737;SDS011;17906;47.684;10.806;2023-04-24T08:11:36;0.73;;;0.50;;
16737;SDS011;17906;47.684;10.806;2023-04-24T08:14:04;0.60;;;0.53;;
16737;SDS011;17906;47.684;10.806;2023-04-24T08:16:31;2.00;;;0.50;;
16737;SDS011;17906;47.684;10.806;2023-04-24T08:18:58;1.13;;;0.70;;
16737;SDS011;17906;47.684;10.806;2023-04-24T08:21:25;1.20;;;0.80;;
16737;SDS011;17906;47.684;10.806;2023-04-24T08:23:52;0.70;;;0.50;;
16737;SDS011;17906;47.684;10.806;2023-04-24T08:26:19;0.90;;;0.60;;
16737;SDS011;17906;47.684;10.806;2023-04-24T08:28:45;1.20;;;0.80;;
16737;SDS011;17906;47.684;10.806;2023-04-24T08:31:13;2.50;;;0.90;;
16737;SDS011;17906;47.684;10.806;2023-04-24T08:33:40;1.30;;;0.80;;
16737;SDS011;17906;47.684;10.806;2023-04-24T08:36:06;1.57;;;0.80;;
16737;SDS011;17906;47.684;10.806;2023-04-24T08:38:33;1.93;;;1.40;;
16737;SDS011;17906;47.684;10.806;2023-04-24T08:41:00;1.20;;;1.10;;
16737;SDS011;17906;47.684;10.806;2023-04-24T08:43:27;1.80;;;0.87;;
16737;SDS011;17906;47.684;10.806;2023-04-24T08:45:55;3.63;;;1.13;;
16737;SDS011;17906;47.684;10.806;2023-04-24T08:48:24;1.50;;;1.03;;
16737;SDS011;17906;47.684;10.806;2023-04-24T08:50:50;3.90;;;1.40;;
16737;SDS011;17906;47.684;10.806;2023-04-24T08:53:17;2.53;;;1.40;;
16737;SDS011;17906;47.684;10.806;2023-04-24T08:55:45;1.93;;;1.10;;
16737;SDS011;17906;47.684;10.806;2023-04-24T08:58:14;1.93;;;1.03;;
16737;SDS011;17906;47.684;10.806;2023-04-24T09:00:42;2.30;;;1.50;;
16737;SDS011;17906;47.684;10.806;2023-04-24T09:03:12;4.13;;;2.13;;
16737;SDS011;17906;47.684;10.806;2023-04-24T09:05:41;3.10;;;1.60;;
16737;SDS011;17906;47.684;10.806;2023-04-24T09:08:10;5.70;;;1.30;;
16737;SDS011;17906;47.684;10.806;2023-04-24T09:10:39;3.47;;;1.30;;
16737;SDS011;17906;47.684;10.806;2023-04-24T09:13:06;5.40;;;1.57;;
16737;SDS011;17906;47.684;10.806;2023-04-24T09:15:35;3.83;;;1.30;;
16737;SDS011;17906;47.684;10.806;2023-04-24T09:18:02;4.00;;;1.33;;
16737;SDS011;17906;47.684;10.806;2023-04-24T09:20:28;5.47;;;1.10;;
16737;SDS011;17906;47.684;10.806;2023-04-24T09:22:57;2.27;;;1.13;;
16737;SDS011;17906;47.684;10.806;2023-04-24T09:25:25;2.33;;;1.17;;
16737;SDS011;17906;47.684;10.806;2023-04-24T09:28:00;1.57;;;0.90;;
16737;SDS011;17906;47.684;10.806;2023-04-24T09:30:27;2.83;;;1.30;;
16737;SDS011;17906;47.684;10.806;2023-04-24T09:33:09;2.43;;;1.20;;
16737;SDS011;17906;47.684;10.806;2023-04-24T09:35:36;2.30;;;1.10;;
16737;SDS011;17906;47.684;10.806;2023-04-24T09:38:07;2.40;;;0.93;;
16737;SDS011;17906;47.684;10.806;2023-04-24T09:40:34;7.63;;;0.90;;
16737;SDS011;17906;47.684;10.806;2023-04-24T09:43:01;4.17;;;1.47;;
16737;SDS011;17906;47.684;10.806;2023-04-24T09:45:28;1.33;;;1.00;;
16737;SDS011;17906;47.684;10.806;2023-04-24T09:48:01;3.10;;;1.80;;
16737;SDS011;17906;47.684;10.806;2023-04-24T09:50:29;5.20;;;2.53;;
16737;SDS011;17906;47.684;10.806;2023-04-24T09:52:57;2.80;;;1.83;;
16737;SDS011;17906;47.684;10.806;2023-04-24T09:55:27;5.27;;;1.80;;
16737;SDS011;17906;47.684;10.806;2023-04-24T09:57:54;1.10;;;0.70;;
16737;SDS011;17906;47.684;10.806;2023-04-24T10:00:22;1.53;;;1.00;;
16737;SDS011;17906;47.684;10.806;2023-04-24T10:02:55;1.27;;;1.10;;
16737;SDS011;17906;47.684;10.806;2023-04-24T10:05:23;1.17;;;0.80;;
16737;SDS011;17906;47.684;10.806;2023-04-24T10:07:55;1.40;;;0.80;;
16737;SDS011;17906;47.684;10.806;2023-04-24T10:10:22;2.00;;;0.77;;
16737;SDS011;17906;47.684;10.806;2023-04-24T10:12:51;1.60;;;1.17;;
16737;SDS011;17906;47.684;10.806;2023-04-24T10:15:18;10.77;;;4.43;;
16737;SDS011;17906;47.684;10.806;2023-04-24T10:17:46;2.80;;;1.50;;
16737;SDS011;17906;47.684;10.806;2023-04-24T10:20:17;2.40;;;0.70;;
16737;SDS011;17906;47.684;10.806;2023-04-24T10:22:44;1.53;;;0.80;;
16737;SDS011;17906;47.684;10.806;2023-04-24T10:25:15;2.23;;;1.00;;
16737;SDS011;17906;47.684;10.806;2023-04-24T10:27:42;1.90;;;0.60;;
16737;SDS011;17906;47.684;10.806;2023-04-24T10:30:11;2.43;;;1.50;;
16737;SDS011;17906;47.684;10.806;2023-04-24T10:32:38;5.47;;;2.40;;
16737;SDS011;17906;47.684;10.806;2023-04-24T10:37:33;4.90;;;2.00;;
16737;SDS011;17906;47.684;10.806;2023-04-24T10:40:03;2.23;;;1.67;;
16737;SDS011;17906;47.684;10.806;2023-04-24T10:42:30;5.70;;;2.03;;
16737;SDS011;17906;47.684;10.806;2023-04-24T10:44:57;2.33;;;1.10;;
16737;SDS011;17906;47.684;10.806;2023-04-24T10:47:25;2.00;;;1.40;;
16737;SDS011;17906;47.684;10.806;2023-04-24T10:49:52;4.60;;;2.20;;
16737;SDS011;17906;47.684;10.806;2023-04-24T10:52:18;5.67;;;2.07;;
16737;SDS011;17906;47.684;10.806;2023-04-24T10:54:46;9.23;;;4.20;;
16737;SDS011;17906;47.684;10.806;2023-04-24T10:57:27;3.87;;;2.10;;
16737;SDS011;17906;47.684;10.806;2023-04-24T11:00:10;2.07;;;1.20;;
16737;SDS011;17906;47.684;10.806;2023-04-24T11:02:41;1.47;;;1.00;;
16737;SDS011;17906;47.684;10.806;2023-04-24T11:05:14;5.03;;;1.20;;
16737;SDS011;17906;47.684;10.806;2023-04-24T11:10:39;2.57;;;1.27;;
16737;SDS011;17906;47.684;10.806;2023-04-24T11:13:07;2.70;;;1.40;;
16737;SDS011;17906;47.684;10.806;2023-04-24T11:15:34;2.03;;;1.10;;
16737;SDS011;17906;47.684;10.806;2023-04-24T11:18:02;3.27;;;1.30;;
16737;SDS011;17906;47.684;10.806;2023-04-24T11:20:29;1.70;;;1.20;;
16737;SDS011;17906;47.684;10.806;2023-04-24T11:22:58;3.47;;;1.50;;
16737;SDS011;17906;47.684;10.806;2023-04-24T11:25:30;3.67;;;1.20;;
16737;SDS011;17906;47.684;10.806;2023-04-24T11:28:02;4.53;;;1.30;;
16737;SDS011;17906;47.684;10.806;2023-04-24T11:30:30;1.47;;;1.20;;
16737;SDS011;17906;47.684;10.806;2023-04-24T11:33:05;2.13;;;1.10;;
16737;SDS011;17906;47.684;10.806;2023-04-24T11:35:34;1.83;;;0.87;;
16737;SDS011;17906;47.684;10.806;2023-04-24T11:38:04;2.13;;;0.90;;
16737;SDS011;17906;47.684;10.806;2023-04-24T11:40:32;2.43;;;1.10;;
16737;SDS011;17906;47.684;10.806;2023-04-24T11:42:59;2.63;;;1.00;;
16737;SDS011;17906;47.684;10.806;2023-04-24T11:45:26;1.30;;;1.00;;
16737;SDS011;17906;47.684;10.806;2023-04-24T11:47:53;2.50;;;1.10;;
16737;SDS011;17906;47.684;10.806;2023-04-24T11:50:22;1.37;;;0.90;;
16737;SDS011;17906;47.684;10.806;2023-04-24T11:52:51;4.50;;;1.13;;
16737;SDS011;17906;47.684;10.806;2023-04-24T11:55:25;2.70;;;1.00;;
16737;SDS011;17906;47.684;10.806;2023-04-24T11:57:53;4.10;;;1.20;;
16737;SDS011;17906;47.684;10.806;2023-04-24T12:00:23;1.63;;;1.00;;
16737;SDS011;17906;47.684;10.806;2023-04-24T12:03:02;1.80;;;1.00;;
16737;SDS011;17906;47.684;10.806;2023-04-24T12:05:32;2.53;;;1.20;;
16737;SDS011;17906;47.684;10.806;2023-04-24T12:07:59;2.13;;;1.40;;
16737;SDS011;17906;47.684;10.806;2023-04-24T12:10:27;2.93;;;1.50;;
16737;SDS011;17906;47.684;10.806;2023-04-24T12:12:55;3.40;;;1.20;;
16737;SDS011;17906;47.684;10.806;2023-04-24T12:15:23;2.50;;;1.43;;
16737;SDS011;17906;47.684;10.806;2023-04-24T12:17:50;2.43;;;1.33;;
16737;SDS011;17906;47.684;10.806;2023-04-24T12:20:23;2.17;;;1.40;;
16737;SDS011;17906;47.684;10.806;2023-04-24T12:22:53;2.33;;;1.20;;
16737;SDS011;17906;47.684;10.806;2023-04-24T12:25:21;2.10;;;1.10;;
16737;SDS011;17906;47.684;10.806;2023-04-24T12:27:52;3.27;;;1.43;;
16737;SDS011;17906;47.684;10.806;2023-04-24T12:30:19;3.10;;;1.30;;
16737;SDS011;17906;47.684;10.806;2023-04-24T12:32:46;3.47;;;1.30;;
16737;SDS011;17906;47.684;10.806;2023-04-24T12:35:18;3.97;;;1.40;;
16737;SDS011;17906;47.684;10.806;2023-04-24T12:37:46;3.87;;;1.37;;
16737;SDS011;17906;47.684;10.806;2023-04-24T12:40:14;2.50;;;1.50;;
16737;SDS011;17906;47.684;10.806;2023-04-24T12:42:44;2.23;;;1.50;;
16737;SDS011;17906;47.684;10.806;2023-04-24T12:45:12;7.87;;;1.60;;
16737;SDS011;17906;47.684;10.806;2023-04-24T12:47:39;2.30;;;1.40;;
16737;SDS011;17906;47.684;10.806;2023-04-24T12:50:07;2.97;;;1.43;;
16737;SDS011;17906;47.684;10.806;2023-04-24T12:52:34;2.73;;;1.60;;
16737;SDS011;17906;47.684;10.806;2023-04-24T12:55:01;1.93;;;1.43;;
16737;SDS011;17906;47.684;10.806;2023-04-24T12:57:29;4.77;;;1.40;;
16737;SDS011;17906;47.684;10.806;2023-04-24T12:59:57;2.97;;;1.40;;
16737;SDS011;17906;47.684;10.806;2023-04-24T13:02:25;3.00;;;1.43;;
16737;SDS011;17906;47.684;10.806;2023-04-24T13:04:54;2.17;;;1.40;;
16737;SDS011;17906;47.684;10.806;2023-04-24T13:07:21;2.03;;;1.20;;
16737;SDS011;17906;47.684;10.806;2023-04-24T13:09:48;4.77;;;1.67;;
16737;SDS011;17906;47.684;10.806;2023-04-24T13:12:16;2.30;;;1.40;;
16737;SDS011;17906;47.684;10.806;2023-04-24T13:14:44;1.87;;;1.30;;
16737;SDS011;17906;47.684;10.806;2023-04-24T13:17:11;2.83;;;1.57;;
16737;SDS011;17906;47.684;10.806;2023-04-24T13:19:38;3.20;;;1.60;;
16737;SDS011;17906;47.684;10.806;2023-04-24T13:22:06;1.47;;;1.20;;
16737;SDS011;17906;47.684;10.806;2023-04-24T13:24:33;3.27;;;1.50;;
16737;SDS011;17906;47.684;10.806;2023-04-24T13:27:00;3.00;;;1.33;;
16737;SDS011;17906;47.684;10.806;2023-04-24T13:29:27;2.60;;;1.47;;
16737;SDS011;17906;47.684;10.806;2023-04-24T13:31:55;3.63;;;1.57;;
16737;SDS011;17906;47.684;10.806;2023-04-24T13:34:22;2.43;;;1.50;;
16737;SDS011;17906;47.684;10.806;2023-04-24T13:36:49;3.43;;;1.53;;
16737;SDS011;17906;47.684;10.806;2023-04-24T13:39:16;3.47;;;1.53;;
16737;SDS011;17906;47.684;10.806;2023-04-24T13:41:43;4.90;;;1.57;;
16737;SDS011;17906;47.684;10.806;2023-04-24T13:44:10;2.83;;;1.60;;
16737;SDS011;17906;47.684;10.806;2023-04-24T13:46:36;2.60;;;1.70;;
16737;SDS011;17906;47.684;10.806;2023-04-24T13:49:04;2.43;;;1.40;;
16737;SDS011;17906;47.684;10.806;2023-04-24T13:51:31;2.20;;;1.40;;
16737;SDS011;17906;47.684;10.806;2023-04-24T13:53:58;5.07;;;1.60;;
16737;SDS011;17906;47.684;10.806;2023-04-24T13:56:26;3.10;;;1.33;;
16737;SDS011;17906;47.684;10.806;2023-04-24T13:58:52;1.73;;;1.27;;
16737;SDS011;17906;47.684;10.806;2023-04-24T14:01:19;3.27;;;1.37;;
16737;SDS011;17906;47.684;10.806;2023-04-24T14:03:49;4.57;;;1.87;;
16737;SDS011;17906;47.684;10.806;2023-04-24T14:06:17;3.30;;;1.33;;
16737;SDS011;17906;47.684;10.806;2023-04-24T14:08:44;1.90;;;1.40;;
16737;SDS011;17906;47.684;10.806;2023-04-24T14:11:11;1.80;;;1.30;;
16737;SDS011;17906;47.684;10.806;2023-04-24T14:13:37;2.20;;;1.30;;
16737;SDS011;17906;47.684;10.806;2023-04-24T14:16:04;3.93;;;1.47;;
16737;SDS011;17906;47.684;10.806;2023-04-24T14:18:31;4.57;;;1.17;;
16737;SDS011;17906;47.684;10.806;2023-04-24T14:20:58;2.07;;;1.17;;
16737;SDS011;17906;47.684;10.806;2023-04-24T14:23:27;3.47;;;1.23;;
16737;SDS011;17906;47.684;10.806;2023-04-24T14:25:54;5.20;;;1.10;;
16737;SDS011;17906;47.684;10.806;2023-04-24T14:28:21;1.70;;;1.23;;
16737;SDS011;17906;47.684;10.806;2023-04-24T14:30:48;1.60;;;1.20;;
16737;SDS011;17906;47.684;10.806;2023-04-24T14:33:14;2.80;;;1.20;;
16737;SDS011;17906;47.684;10.806;2023-04-24T14:35:41;2.13;;;1.10;;
16737;SDS011;17906;47.684;10.806;2023-04-24T14:38:08;3.10;;;1.50;;
16737;SDS011;17906;47.684;10.806;2023-04-24T14:40:37;3.07;;;1.30;;